Time;durP1;ratioP1;P1;durP2;ratioP2;P2;SDS_P1;SDS_P2;PMS_P1;PMS_P2;Temp;Humidity;BMP_temperature;BMP_pressure;BME280_temperature;BME280_humidity;BME280_pressure;Samples;Min_cycle;Max_cycle;Signal;HPM_P1;HPM_P2
2023/04/14 00:02:12;;;;;;;;;;;21.20;51.70;;;;;;4757982;55;20873;-27
2023/04/14 00:07:12;;;;;;;;;;;21.20;51.70;;;;;;4843915;55;20061;-29
2023/04/14 00:12:13;;;;;;;;;;;21.20;51.70;;;;;;4746582;58;20299;-31
2023/04/14 00:17:14;;;;;;;;;;;21.20;51.70;;;;;;4766597;55;20193;-28
2023/04/14 00:22:15;;;;;;;;;;;21.20;51.80;;;;;;4808171;55;20068;-28
2023/04/14 00:27:15;;;;;;;;;;;21.20;51.70;;;;;;4746712;58;20073;-27
2023/04/14 00:32:16;;;;;;;;;;;21.20;51.70;;;;;;4746691;58;20152;-29
2023/04/14 00:37:17;;;;;;;;;;;21.20;51.70;;;;;;4768552;54;20112;-28
2023/04/14 00:42:20;;;;;;;;;;;21.20;51.70;;;;;;4800514;55;20053;-30
2023/04/14 00:47:23;;;;;;;;;;;21.20;51.70;;;;;;4880237;55;20305;-27
2023/04/14 00:52:24;;;;;;;;;;;21.20;51.70;;;;;;4966983;55;20095;-28
2023/04/14 00:57:25;;;;;;;;;;;21.20;51.70;;;;;;4746689;58;20176;-29
2023/04/14 01:02:26;;;;;;;;;;;21.20;51.70;;;;;;4909758;55;20641;-29
2023/04/14 01:07:27;;;;;;;;;;;21.20;51.60;;;;;;4764206;55;20319;-28
2023/04/14 01:12:37;;;;;;;;;;;21.20;51.60;;;;;;4746983;58;20136;-29
2023/04/14 01:17:48;;;;;;;;;;;21.20;51.60;;;;;;4845994;55;20076;-28
2023/04/14 01:24:41;;;;;;;;;;;21.20;51.60;;;;;;4746408;58;20657;-30
2023/04/14 01:31:12;;;;;;;;;;;21.20;51.60;;;;;;4810529;55;20116;-29
2023/04/14 01:36:19;;;;;;;;;;;21.20;51.50;;;;;;4794094;55;20072;-25
2023/04/14 01:41:20;;;;;;;;;;;21.20;52.10;;;;;;4746569;58;20124;-32
2023/04/14 01:46:21;;;;;;;;;;;21.20;51.50;;;;;;4830103;55;20104;-30
2023/04/14 01:51:22;;;;;;;;;;;21.20;52.20;;;;;;4820322;55;20323;-29
2023/04/14 01:56:24;;;;;;;;;;;21.20;51.50;;;;;;4747235;58;20171;-29
2023/04/14 02:01:26;;;;;;;;;;;21.20;51.50;;;;;;4746688;55;20108;-30
2023/04/14 02:06:27;;;;;;;;;;;21.20;51.50;;;;;;4768603;55;20371;-31
2023/04/14 02:11:29;;;;;;;;;;;21.20;51.50;;;;;;4746979;55;20080;-25
2023/04/14 02:16:30;;;;;;;;;;;21.20;51.50;;;;;;4801255;55;20303;-31
2023/04/14 02:21:32;;;;;;;;;;;21.20;51.50;;;;;;4767479;55;20068;-29
2023/04/14 02:26:34;;;;;;;;;;;21.20;51.50;;;;;;4868699;55;20072;-31
2023/04/14 02:31:38;;;;;;;;;;;21.20;51.50;;;;;;4746358;58;20076;-27
2023/04/14 02:36:43;;;;;;;;;;;21.20;52.10;;;;;;4824396;54;20049;-27
2023/04/14 02:41:45;;;;;;;;;;;21.20;51.50;;;;;;4854550;55;20076;-27
2023/04/14 02:47:06;;;;;;;;;;;21.20;51.50;;;;;;4746289;58;20061;-32
2023/04/14 02:52:09;;;;;;;;;;;21.20;51.60;;;;;;4795575;55;20390;-31
2023/04/14 02:57:10;;;;;;;;;;;21.20;51.60;;;;;;4784379;55;20104;-32
2023/04/14 03:02:11;;;;;;;;;;;21.20;51.60;;;;;;4790406;55;20060;-30
2023/04/14 03:07:13;;;;;;;;;;;21.20;51.60;;;;;;4818836;55;20057;-30
2023/04/14 03:12:14;;;;;;;;;;;21.20;51.70;;;;;;4909946;55;20067;-31
2023/04/14 03:17:17;;;;;;;;;;;21.20;51.60;;;;;;4774575;55;20350;-27
2023/04/14 03:22:18;;;;;;;;;;;21.20;51.70;;;;;;4762918;55;20270;-31
2023/04/14 03:27:26;;;;;;;;;;;21.20;51.70;;;;;;4805130;55;20343;-29
2023/04/14 03:32:29;;;;;;;;;;;21.20;51.70;;;;;;4769585;55;20533;-28
2023/04/14 03:37:31;;;;;;;;;;;21.20;51.80;;;;;;4746735;55;20369;-31
2023/04/14 03:42:33;;;;;;;;;;;21.20;51.80;;;;;;4756745;55;20117;-32
2023/04/14 03:47:34;;;;;;;;;;;21.20;51.90;;;;;;4796611;55;20653;-29
2023/04/14 03:52:35;;;;;;;;;;;21.20;52.00;;;;;;4746587;58;20318;-29
2023/04/14 03:57:36;;;;;;;;;;;21.20;52.10;;;;;;4746575;58;20088;-29
2023/04/14 04:02:37;;;;;;;;;;;21.20;52.40;;;;;;4804274;55;20354;-33
2023/04/14 04:07:39;;;;;;;;;;;21.20;52.30;;;;;;4823968;55;20323;-31
2023/04/14 04:12:43;;;;;;;;;;;21.20;52.30;;;;;;4845183;55;20374;-31
2023/04/14 04:17:46;;;;;;;;;;;21.20;52.30;;;;;;4809272;55;20157;-31
2023/04/14 04:22:50;;;;;;;;;;;21.20;52.40;;;;;;4830591;55;20064;-30
2023/04/14 04:27:50;;;;;;;;;;;21.20;52.40;;;;;;4746368;58;20287;-29
2023/04/14 04:32:51;;;;;;;;;;;21.20;52.40;;;;;;4746248;58;20052;-28
2023/04/14 04:37:52;;;;;;;;;;;21.20;52.50;;;;;;4869046;55;20116;-31
2023/04/14 04:42:53;;;;;;;;;;;21.20;52.50;;;;;;4821508;55;20057;-27
2023/04/14 04:47:53;;;;;;;;;;;21.20;52.50;;;;;;4746444;55;20315;-28
2023/04/14 04:52:54;;;;;;;;;;;21.20;52.60;;;;;;4861617;55;20061;-31
2023/04/14 04:57:55;;;;;;;;;;;21.20;52.60;;;;;;4851234;55;20056;-30
2023/04/14 05:02:55;;;;;;;;;;;21.20;52.60;;;;;;4745600;58;20108;-30
2023/04/14 05:07:56;;;;;;;;;;;21.20;52.60;;;;;;4833624;55;20089;-27
2023/04/14 05:12:57;;;;;;;;;;;21.20;52.60;;;;;;4983824;55;20076;-28
2023/04/14 05:17:58;;;;;;;;;;;21.20;52.60;;;;;;4848831;55;20076;-31
2023/04/14 05:22:58;;;;;;;;;;;21.20;52.70;;;;;;4746080;58;20084;-31
2023/04/14 05:27:59;;;;;;;;;;;21.20;52.70;;;;;;4746368;58;20124;-29
2023/04/14 05:33:00;;;;;;;;;;;21.20;52.80;;;;;;4818593;55;20112;-30
2023/04/14 05:38:00;;;;;;;;;;;21.20;52.70;;;;;;4812709;55;20168;-31
2023/04/14 05:43:01;;;;;;;;;;;21.20;52.80;;;;;;4745922;55;20068;-29
2023/04/14 05:48:02;;;;;;;;;;;21.20;52.70;;;;;;4780842;55;20350;-28
2023/04/14 05:53:03;;;;;;;;;;;21.20;52.80;;;;;;4759393;55;20136;-28
2023/04/14 05:58:04;;;;;;;;;;;21.20;52.80;;;;;;4824047;55;20119;-29
2023/04/14 06:03:04;;;;;;;;;;;21.20;52.80;;;;;;4745765;58;20323;-29
2023/04/14 06:08:05;;;;;;;;;;;21.20;52.90;;;;;;4843004;55;20096;-29
2023/04/14 06:13:07;;;;;;;;;;;21.20;52.90;;;;;;4788389;55;20109;-30
2023/04/14 06:18:08;;;;;;;;;;;21.20;52.90;;;;;;4829444;55;20709;-29
2023/04/14 06:23:08;;;;;;;;;;;21.20;52.90;;;;;;4745819;58;20182;-27
2023/04/14 06:28:09;;;;;;;;;;;21.20;52.90;;;;;;4746620;55;20302;-27
2023/04/14 06:33:10;;;;;;;;;;;21.20;52.90;;;;;;4745923;58;20124;-25
2023/04/14 06:38:10;;;;;;;;;;;21.20;53.00;;;;;;4797564;55;20279;-29
2023/04/14 06:43:13;;;;;;;;;;;21.20;53.00;;;;;;4745508;58;20386;-26
2023/04/14 06:48:14;;;;;;;;;;;21.20;53.00;;;;;;4813385;55;20361;-31
2023/04/14 06:53:15;;;;;;;;;;;21.20;53.00;;;;;;4874171;55;20373;-29
2023/04/14 06:58:15;;;;;;;;;;;21.20;53.00;;;;;;4812489;55;20166;-28
2023/04/14 07:03:16;;;;;;;;;;;21.20;53.00;;;;;;4782594;55;20334;-29
2023/04/14 07:08:17;;;;;;;;;;;21.20;53.00;;;;;;4746463;58;20278;-29
2023/04/14 07:13:17;;;;;;;;;;;21.20;53.00;;;;;;4784379;55;20435;-29
2023/04/14 07:18:18;;;;;;;;;;;21.20;53.00;;;;;;4872204;55;20089;-28
2023/04/14 07:23:19;;;;;;;;;;;21.20;53.00;;;;;;4813628;55;20406;-30
2023/04/14 07:28:23;;;;;;;;;;;21.20;53.10;;;;;;4765904;55;20064;-28
2023/04/14 07:33:25;;;;;;;;;;;21.20;53.10;;;;;;4768289;55;20049;-28
2023/04/14 07:38:26;;;;;;;;;;;21.20;53.10;;;;;;4780723;55;20326;-29
2023/04/14 07:43:28;;;;;;;;;;;21.20;53.10;;;;;;4744496;58;20072;-25
2023/04/14 07:48:30;;;;;;;;;;;21.20;53.20;;;;;;4747276;55;20858;-24
2023/04/14 07:53:31;;;;;;;;;;;21.30;53.70;;;;;;4753680;55;20394;-27
2023/04/14 07:58:32;;;;;;;;;;;21.30;54.00;;;;;;4759900;55;20314;-24
2023/04/14 08:03:35;;;;;;;;;;;21.40;54.20;;;;;;4794732;55;20096;-31
2023/04/14 08:08:36;;;;;;;;;;;21.40;54.40;;;;;;4758538;55;20263;-28
2023/04/14 08:13:36;;;;;;;;;;;21.40;54.50;;;;;;4759460;55;20076;-26
2023/04/14 08:18:38;;;;;;;;;;;21.40;54.50;;;;;;4747913;55;20136;-28
2023/04/14 08:23:39;;;;;;;;;;;21.50;54.80;;;;;;4815494;55;20064;-24
2023/04/14 08:28:42;;;;;;;;;;;21.50;54.70;;;;;;4810366;55;20306;-25
2023/04/14 08:33:43;;;;;;;;;;;21.60;54.80;;;;;;4743477;55;20318;-25
2023/04/14 08:38:44;;;;;;;;;;;21.50;54.80;;;;;;4753404;55;20164;-27
2023/04/14 08:43:45;;;;;;;;;;;21.60;54.90;;;;;;4747854;55;20303;-27
2023/04/14 08:48:48;;;;;;;;;;;21.60;54.90;;;;;;4762688;55;20120;-24
2023/04/14 08:53:50;;;;;;;;;;;21.60;55.00;;;;;;4750656;55;20107;-27
2023/04/14 08:58:51;;;;;;;;;;;21.60;54.90;;;;;;4744456;58;20363;-30
2023/04/14 09:03:52;;;;;;;;;;;21.60;54.90;;;;;;4753093;55;20117;-25
2023/04/14 09:08:53;;;;;;;;;;;21.60;55.00;;;;;;4772949;55;20116;-28
2023/04/14 09:13:55;;;;;;;;;;;21.70;55.10;;;;;;4744604;58;20314;-29
2023/04/14 09:18:56;;;;;;;;;;;21.70;55.10;;;;;;4753064;55;20335;-24
2023/04/14 09:23:57;;;;;;;;;;;21.70;55.10;;;;;;4797703;55;20073;-31
2023/04/14 09:28:58;;;;;;;;;;;21.70;55.20;;;;;;4745383;55;20068;-30
2023/04/14 09:33:58;;;;;;;;;;;21.70;55.20;;;;;;4743801;58;20108;-28
2023/04/14 09:38:59;;;;;;;;;;;21.70;55.30;;;;;;4747760;55;20056;-26
2023/04/14 09:44:06;;;;;;;;;;;21.70;55.40;;;;;;4755657;55;20093;-29
2023/04/14 09:49:07;;;;;;;;;;;21.70;55.20;;;;;;4744279;58;20072;-30
2023/04/14 09:54:08;;;;;;;;;;;21.70;55.30;;;;;;4748890;55;20076;-27
2023/04/14 09:59:09;;;;;;;;;;;21.80;55.40;;;;;;4746751;55;20361;-26
2023/04/14 10:04:21;;;;;;;;;;;21.80;55.40;;;;;;4747041;55;20310;-26
2023/04/14 10:09:22;;;;;;;;;;;21.80;55.40;;;;;;4747659;55;20340;-22
2023/04/14 10:14:22;;;;;;;;;;;21.80;55.40;;;;;;4746212;55;20068;-27
2023/04/14 10:19:23;;;;;;;;;;;21.80;55.40;;;;;;4756380;55;20073;-24
2023/04/14 10:24:24;;;;;;;;;;;21.80;55.40;;;;;;4743631;58;20068;-28
2023/04/14 10:29:27;;;;;;;;;;;21.80;55.60;;;;;;4771903;55;20310;-30
2023/04/14 10:34:29;;;;;;;;;;;21.80;55.60;;;;;;4753427;55;20113;-27
2023/04/14 10:39:30;;;;;;;;;;;21.80;55.60;;;;;;4751239;55;20298;-26
2023/04/14 10:44:33;;;;;;;;;;;21.80;55.40;;;;;;4748454;55;20427;-26
2023/04/14 10:49:34;;;;;;;;;;;21.80;55.90;;;;;;4751380;55;20072;-27
2023/04/14 10:56:28;;;;;;;;;;;21.80;55.40;;;;;;4752453;55;20109;-30
2023/04/14 11:01:34;;;;;;;;;;;21.80;55.30;;;;;;4776045;55;20366;-31
2023/04/14 11:06:51;;;;;;;;;;;21.70;55.30;;;;;;4762175;55;20374;-28
2023/04/14 11:11:53;;;;;;;;;;;21.70;55.40;;;;;;4745415;55;20374;-30
2023/04/14 11:16:57;;;;;;;;;;;21.70;55.30;;;;;;4815492;55;20057;-27
2023/04/14 11:21:58;;;;;;;;;;;21.70;55.30;;;;;;4813753;55;20327;-27
2023/04/14 11:26:59;;;;;;;;;;;21.70;55.40;;;;;;4746172;58;20068;-25
2023/04/14 11:32:00;;;;;;;;;;;21.60;55.20;;;;;;4868803;55;20608;-29
2023/04/14 11:37:02;;;;;;;;;;;21.60;55.20;;;;;;4745486;58;20116;-30
2023/04/14 11:42:03;;;;;;;;;;;21.70;55.30;;;;;;4746075;58;20310;-28
2023/04/14 11:47:03;;;;;;;;;;;21.60;55.30;;;;;;4746165;58;20139;-30
2023/04/14 11:52:05;;;;;;;;;;;21.60;55.20;;;;;;4745082;55;20142;-30
2023/04/14 11:57:10;;;;;;;;;;;21.60;55.20;;;;;;4803465;55;20297;-29
2023/04/14 12:02:14;;;;;;;;;;;21.60;55.20;;;;;;4789962;55;20064;-30
2023/04/14 12:07:16;;;;;;;;;;;21.60;55.20;;;;;;4832082;55;20385;-29
2023/04/14 12:12:17;;;;;;;;;;;21.60;55.20;;;;;;4775867;55;20271;-31
2023/04/14 12:17:19;;;;;;;;;;;21.60;55.20;;;;;;4745696;58;20378;-30
2023/04/14 12:22:23;;;;;;;;;;;21.60;55.20;;;;;;4839524;55;20108;-28
2023/04/14 12:27:24;;;;;;;;;;;21.50;55.10;;;;;;4785701;55;20753;-29
2023/04/14 12:32:28;;;;;;;;;;;21.50;55.10;;;;;;4747361;55;20064;-28
2023/04/14 12:37:29;;;;;;;;;;;21.50;55.10;;;;;;4746346;55;20326;-28
2023/04/14 12:42:42;;;;;;;;;;;21.50;55.10;;;;;;4867929;55;20052;-29
2023/04/14 12:47:52;;;;;;;;;;;21.50;55.20;;;;;;4746244;58;20119;-31
2023/04/14 12:52:53;;;;;;;;;;;21.50;55.20;;;;;;4834791;55;20072;-31
2023/04/14 12:57:54;;;;;;;;;;;21.50;55.20;;;;;;4757958;55;20287;-30
2023/04/14 13:02:55;;;;;;;;;;;21.50;55.20;;;;;;4871175;55;20100;-30
2023/04/14 13:07:56;;;;;;;;;;;21.50;55.20;;;;;;4745844;58;20084;-31
2023/04/14 13:12:57;;;;;;;;;;;21.50;55.20;;;;;;4746328;55;20065;-31
2023/04/14 13:17:57;;;;;;;;;;;21.50;55.20;;;;;;4775352;55;20345;-31
2023/04/14 13:22:58;;;;;;;;;;;21.50;55.20;;;;;;4812048;55;20057;-30
2023/04/14 13:27:59;;;;;;;;;;;21.50;55.20;;;;;;4746142;58;20294;-30
2023/04/14 13:32:59;;;;;;;;;;;21.50;55.20;;;;;;4794423;55;20117;-32
2023/04/14 13:38:00;;;;;;;;;;;21.50;55.20;;;;;;4746356;58;20084;-31
2023/04/14 13:43:01;;;;;;;;;;;21.50;55.20;;;;;;4746055;58;20404;-29
2023/04/14 13:48:03;;;;;;;;;;;21.50;55.20;;;;;;4865894;55;20394;-26
2023/04/14 13:53:04;;;;;;;;;;;21.50;55.20;;;;;;4813923;55;20273;-29
2023/04/14 13:58:05;;;;;;;;;;;21.50;55.20;;;;;;4782737;55;20172;-29
2023/04/14 14:03:05;;;;;;;;;;;21.50;55.20;;;;;;4781098;55;20311;-28
2023/04/14 14:08:06;;;;;;;;;;;21.50;55.10;;;;;;4922898;55;20774;-30
2023/04/14 14:13:07;;;;;;;;;;;21.50;55.10;;;;;;4780614;55;20062;-30
2023/04/14 14:18:08;;;;;;;;;;;21.50;55.10;;;;;;4792576;55;20144;-28
2023/04/14 14:23:10;;;;;;;;;;;21.50;55.10;;;;;;4746113;58;20275;-28
2023/04/14 14:28:11;;;;;;;;;;;21.50;55.10;;;;;;4801566;55;20080;-27
2023/04/14 14:33:12;;;;;;;;;;;21.50;55.00;;;;;;4746435;58;20342;-28
2023/04/14 14:38:13;;;;;;;;;;;21.50;55.00;;;;;;4764359;55;20100;-29
2023/04/14 14:43:14;;;;;;;;;;;21.40;54.90;;;;;;4878493;55;20072;-26
2023/04/14 14:48:15;;;;;;;;;;;21.40;54.90;;;;;;4746403;58;20080;-26
2023/04/14 14:53:16;;;;;;;;;;;21.50;55.00;;;;;;4781095;55;20343;-27
2023/04/14 14:58:16;;;;;;;;;;;21.40;54.90;;;;;;4840442;55;20117;-29
2023/04/14 15:03:17;;;;;;;;;;;21.50;55.00;;;;;;4746224;58;20383;-28
2023/04/14 15:08:18;;;;;;;;;;;21.50;54.90;;;;;;4746722;58;20072;-29
2023/04/14 15:13:18;;;;;;;;;;;21.50;54.90;;;;;;4774281;55;20322;-27
2023/04/14 15:18:19;;;;;;;;;;;21.40;54.90;;;;;;4787390;55;20108;-28
2023/04/14 15:23:20;;;;;;;;;;;21.50;54.90;;;;;;4764016;55;20282;-27
2023/04/14 15:28:22;;;;;;;;;;;21.40;54.80;;;;;;4796702;55;20060;-29
2023/04/14 15:33:23;;;;;;;;;;;21.50;54.90;;;;;;4908088;55;20150;-29
2023/04/14 15:38:24;;;;;;;;;;;21.40;54.90;;;;;;4961015;55;20271;-28
2023/04/14 15:43:26;;;;;;;;;;;21.40;54.80;;;;;;4746129;58;20116;-30
2023/04/14 15:48:28;;;;;;;;;;;21.40;54.80;;;;;;4941003;55;20410;-29
2023/04/14 15:53:29;;;;;;;;;;;21.40;54.90;;;;;;4746472;58;20338;-29
2023/04/14 15:58:30;;;;;;;;;;;21.40;54.80;;;;;;4746253;58;20159;-27
2023/04/14 16:03:30;;;;;;;;;;;21.40;54.80;;;;;;4755557;55;20124;-27
2023/04/14 16:08:31;;;;;;;;;;;21.40;54.80;;;;;;4746388;58;20072;-28
2023/04/14 16:13:34;;;;;;;;;;;21.50;54.90;;;;;;4831603;55;20076;-30
2023/04/14 16:18:35;;;;;;;;;;;21.40;54.80;;;;;;4746327;58;20124;-29
2023/04/14 16:23:36;;;;;;;;;;;21.50;54.80;;;;;;4809807;55;20362;-28
2023/04/14 16:28:37;;;;;;;;;;;21.40;54.80;;;;;;4845363;55;20148;-30
2023/04/14 16:33:38;;;;;;;;;;;21.40;54.80;;;;;;4787142;55;20060;-32
2023/04/14 16:38:38;;;;;;;;;;;21.40;54.80;;;;;;4787421;55;20267;-28
2023/04/14 16:43:39;;;;;;;;;;;21.50;54.90;;;;;;4745635;58;20049;-28
2023/04/14 16:48:40;;;;;;;;;;;21.50;54.90;;;;;;4816275;55;20378;-31
2023/04/14 16:53:43;;;;;;;;;;;21.40;54.80;;;;;;4789180;55;20413;-29
2023/04/14 16:58:44;;;;;;;;;;;21.40;54.80;;;;;;4848374;55;20069;-27
2023/04/14 17:03:44;;;;;;;;;;;21.40;54.80;;;;;;4745664;58;20100;-29
2023/04/14 17:08:45;;;;;;;;;;;21.50;54.90;;;;;;4821255;55;20112;-29
2023/04/14 17:13:49;;;;;;;;;;;21.40;54.80;;;;;;4821551;55;20084;-29
2023/04/14 17:18:50;;;;;;;;;;;21.50;54.80;;;;;;4762319;55;20286;-28
2023/04/14 17:23:51;;;;;;;;;;;21.50;54.80;;;;;;4775424;55;20286;-31
2023/04/14 17:28:52;;;;;;;;;;;21.50;54.80;;;;;;4900625;55;20096;-27
2023/04/14 17:33:53;;;;;;;;;;;21.50;54.80;;;;;;4746162;58;20064;-30
2023/04/14 17:38:53;;;;;;;;;;;21.50;54.80;;;;;;4825702;55;20065;-29
2023/04/14 17:43:54;;;;;;;;;;;21.50;54.90;;;;;;4775430;55;20314;-27
2023/04/14 17:48:55;;;;;;;;;;;21.50;54.80;;;;;;4768879;55;20071;-29
2023/04/14 17:53:55;;;;;;;;;;;21.40;54.80;;;;;;4746770;58;20064;-29
2023/04/14 17:58:58;;;;;;;;;;;21.40;54.80;;;;;;4778464;55;20113;-28
2023/04/14 18:03:59;;;;;;;;;;;21.50;54.90;;;;;;4921060;55;20105;-29
2023/04/14 18:09:00;;;;;;;;;;;21.40;54.80;;;;;;4750450;55;20343;-30
2023/04/14 18:14:01;;;;;;;;;;;21.40;54.80;;;;;;4761421;55;20056;-28
2023/04/14 18:19:02;;;;;;;;;;;21.50;54.80;;;;;;4769958;55;20160;-29
2023/04/14 18:24:03;;;;;;;;;;;21.40;54.80;;;;;;4769334;55;20117;-27
2023/04/14 18:29:06;;;;;;;;;;;21.50;54.80;;;;;;4746578;56;20287;-27
2023/04/14 18:34:09;;;;;;;;;;;21.40;54.80;;;;;;4798809;55;20053;-27
2023/04/14 18:39:09;;;;;;;;;;;21.50;54.80;;;;;;4791616;55;20278;-25
2023/04/14 18:44:10;;;;;;;;;;;21.50;54.80;;;;;;4810384;55;20072;-30
2023/04/14 18:49:11;;;;;;;;;;;21.40;54.80;;;;;;4824317;55;20286;-31
2023/04/14 18:54:12;;;;;;;;;;;21.40;54.70;;;;;;4746688;58;20306;-28
2023/04/14 18:59:12;;;;;;;;;;;21.40;54.80;;;;;;4746675;58;20275;-28
2023/04/14 19:04:13;;;;;;;;;;;21.40;54.70;;;;;;4814514;55;20112;-26
2023/04/14 19:09:14;;;;;;;;;;;21.40;54.80;;;;;;4834012;55;20360;-30
2023/04/14 19:14:15;;;;;;;;;;;21.40;54.70;;;;;;4746604;58;20306;-29
2023/04/14 19:19:15;;;;;;;;;;;21.50;54.70;;;;;;4797746;55;20177;-28
2023/04/14 19:24:16;;;;;;;;;;;21.40;54.70;;;;;;4804715;55;20327;-29
2023/04/14 19:29:18;;;;;;;;;;;21.50;54.70;;;;;;4758646;55;20139;-29
2023/04/14 19:34:20;;;;;;;;;;;21.40;54.60;;;;;;4753727;55;20097;-29
2023/04/14 19:39:20;;;;;;;;;;;21.40;54.70;;;;;;4854347;55;20371;-30
2023/04/14 19:44:21;;;;;;;;;;;21.40;54.60;;;;;;4745676;58;20060;-28
2023/04/14 19:49:23;;;;;;;;;;;21.40;54.60;;;;;;4746652;58;20319;-28
2023/04/14 19:54:24;;;;;;;;;;;21.40;54.60;;;;;;4756835;55;20355;-29
2023/04/14 19:59:30;;;;;;;;;;;21.40;54.50;;;;;;4749431;55;20128;-28
2023/04/14 20:04:31;;;;;;;;;;;21.40;54.50;;;;;;4758531;55;20096;-30
2023/04/14 20:09:32;;;;;;;;;;;21.40;54.50;;;;;;4746389;58;20521;-29
2023/04/14 20:14:33;;;;;;;;;;;21.40;54.50;;;;;;4895134;55;20354;-29
2023/04/14 20:19:34;;;;;;;;;;;21.40;54.50;;;;;;4825625;55;20469;-30
2023/04/14 20:24:38;;;;;;;;;;;21.40;54.50;;;;;;4798520;55;20275;-30
2023/04/14 20:29:38;;;;;;;;;;;21.40;54.50;;;;;;4746262;58;20760;-30
2023/04/14 20:34:39;;;;;;;;;;;21.40;54.50;;;;;;4861632;55;20112;-28
2023/04/14 20:39:40;;;;;;;;;;;21.40;54.50;;;;;;4777965;55;20401;-31
2023/04/14 20:44:40;;;;;;;;;;;21.40;54.40;;;;;;4821443;55;20064;-30
2023/04/14 20:49:41;;;;;;;;;;;21.40;54.60;;;;;;4969403;55;20370;-28
2023/04/14 20:54:42;;;;;;;;;;;21.40;54.40;;;;;;4748436;55;20179;-28
2023/04/14 20:59:43;;;;;;;;;;;21.40;54.40;;;;;;4746672;58;20373;-27
2023/04/14 21:04:44;;;;;;;;;;;21.40;54.40;;;;;;4746000;58;20574;-27
2023/04/14 21:09:44;;;;;;;;;;;21.40;54.40;;;;;;4790304;55;20330;-28
2023/04/14 21:14:45;;;;;;;;;;;21.40;54.30;;;;;;4791361;55;20302;-28
2023/04/14 21:19:46;;;;;;;;;;;21.40;54.30;;;;;;4765016;55;20124;-28
2023/04/14 21:24:47;;;;;;;;;;;21.40;54.40;;;;;;4751295;55;20346;-29
2023/04/14 21:29:48;;;;;;;;;;;21.40;54.30;;;;;;4747470;55;20353;-28
2023/04/14 21:34:48;;;;;;;;;;;21.40;54.30;;;;;;4860088;55;20064;-28
2023/04/14 21:39:49;;;;;;;;;;;21.40;54.90;;;;;;4791968;55;20684;-27
2023/04/14 21:44:50;;;;;;;;;;;21.40;54.20;;;;;;4773877;55;20085;-27
2023/04/14 21:49:50;;;;;;;;;;;21.40;54.20;;;;;;4789559;55;20064;-27
2023/04/14 21:54:52;;;;;;;;;;;21.40;54.20;;;;;;4746863;58;20061;-27
2023/04/14 21:59:53;;;;;;;;;;;21.40;54.20;;;;;;4769959;55;20358;-29
2023/04/14 22:04:53;;;;;;;;;;;21.40;54.20;;;;;;4745820;58;20056;-28
2023/04/14 22:09:54;;;;;;;;;;;21.40;54.20;;;;;;4797532;55;20315;-30
2023/04/14 22:14:55;;;;;;;;;;;21.40;54.10;;;;;;4779066;55;20088;-25
2023/04/14 22:19:55;;;;;;;;;;;21.40;54.10;;;;;;4746305;58;20072;-30
2023/04/14 22:24:56;;;;;;;;;;;21.40;54.20;;;;;;4812411;55;20053;-26
2023/04/14 22:29:56;;;;;;;;;;;21.40;54.10;;;;;;4851819;55;20088;-26
2023/04/14 22:34:57;;;;;;;;;;;21.40;54.10;;;;;;4767130;55;20064;-29
2023/04/14 22:40:01;;;;;;;;;;;21.40;54.10;;;;;;4896535;55;20390;-29
2023/04/14 22:45:01;;;;;;;;;;;21.40;54.00;;;;;;4745898;58;20379;-30
2023/04/14 22:50:02;;;;;;;;;;;21.40;54.10;;;;;;4746820;55;20157;-29
2023/04/14 22:55:03;;;;;;;;;;;21.40;54.10;;;;;;4783525;55;20069;-28
2023/04/14 23:00:07;;;;;;;;;;;21.40;54.00;;;;;;4877819;55;20251;-28
2023/04/14 23:05:11;;;;;;;;;;;21.40;54.00;;;;;;4745590;58;20299;-28
2023/04/14 23:10:12;;;;;;;;;;;21.40;54.00;;;;;;4746535;58;20112;-30
2023/04/14 23:15:12;;;;;;;;;;;21.40;54.00;;;;;;4746295;58;20072;-29
2023/04/14 23:20:13;;;;;;;;;;;21.40;54.00;;;;;;4845664;55;20112;-29
2023/04/14 23:25:14;;;;;;;;;;;21.40;53.90;;;;;;4767000;55;20081;-28
2023/04/14 23:30:15;;;;;;;;;;;21.40;53.90;;;;;;4798398;55;20359;-27
2023/04/14 23:35:15;;;;;;;;;;;21.40;53.90;;;;;;4780132;55;20068;-27
2023/04/14 23:40:16;;;;;;;;;;;21.40;53.90;;;;;;4770593;55;20383;-27
2023/04/14 23:45:17;;;;;;;;;;;21.40;53.90;;;;;;4745880;58;20060;-27
2023/04/14 23:50:18;;;;;;;;;;;21.40;53.80;;;;;;4799119;55;20112;-29
2023/04/14 23:55:18;;;;;;;;;;;21.40;53.80;;;;;;4752671;55;20302;-28
